sensor_id;sensor_type;location;lat;lon;timestamp;P1;durP1;ratioP1;P2;durP2;ratioP2
73251;SDS011;61473;50.834;4.552;2022-08-19T00:01:23;2.72;;;2.53;;
73251;SDS011;61473;50.834;4.552;2022-08-19T00:03:50;3.15;;;2.95;;
73251;SDS011;61473;50.834;4.552;2022-08-19T00:06:16;2.53;;;2.33;;
73251;SDS011;61473;50.834;4.552;2022-08-19T00:08:41;2.67;;;2.47;;
73251;SDS011;61473;50.834;4.552;2022-08-19T00:11:08;2.92;;;2.60;;
73251;SDS011;61473;50.834;4.552;2022-08-19T00:13:34;2.95;;;2.75;;
73251;SDS011;61473;50.834;4.552;2022-08-19T00:16:00;2.25;;;2.15;;
73251;SDS011;61473;50.834;4.552;2022-08-19T00:18:27;2.50;;;2.40;;
73251;SDS011;61473;50.834;4.552;2022-08-19T00:20:53;5.97;;;2.65;;
73251;SDS011;61473;50.834;4.552;2022-08-19T00:23:19;2.75;;;2.55;;
73251;SDS011;61473;50.834;4.552;2022-08-19T00:25:45;3.35;;;2.90;;
73251;SDS011;61473;50.834;4.552;2022-08-19T00:28:10;3.10;;;2.88;;
73251;SDS011;61473;50.834;4.552;2022-08-19T00:30:36;2.75;;;2.40;;
73251;SDS011;61473;50.834;4.552;2022-08-19T00:33:02;3.30;;;3.10;;
73251;SDS011;61473;50.834;4.552;2022-08-19T00:35:28;2.40;;;2.30;;
73251;SDS011;61473;50.834;4.552;2022-08-19T00:37:54;2.45;;;2.25;;
73251;SDS011;61473;50.834;4.552;2022-08-19T00:40:20;2.65;;;2.45;;
73251;SDS011;61473;50.834;4.552;2022-08-19T00:42:46;2.10;;;2.00;;
73251;SDS011;61473;50.834;4.552;2022-08-19T00:45:14;2.88;;;2.67;;
73251;SDS011;61473;50.834;4.552;2022-08-19T00:47:43;2.67;;;2.47;;
73251;SDS011;61473;50.834;4.552;2022-08-19T00:50:11;3.35;;;3.05;;
73251;SDS011;61473;50.834;4.552;2022-08-19T00:52:41;2.63;;;2.45;;
73251;SDS011;61473;50.834;4.552;2022-08-19T00:55:11;3.33;;;3.13;;
73251;SDS011;61473;50.834;4.552;2022-08-19T00:57:42;2.40;;;2.30;;
73251;SDS011;61473;50.834;4.552;2022-08-19T01:00:12;2.80;;;2.60;;
73251;SDS011;61473;50.834;4.552;2022-08-19T01:02:42;4.13;;;2.80;;
73251;SDS011;61473;50.834;4.552;2022-08-19T01:05:09;2.90;;;2.70;;
73251;SDS011;61473;50.834;4.552;2022-08-19T01:07:38;2.88;;;2.67;;
73251;SDS011;61473;50.834;4.552;2022-08-19T01:10:06;2.60;;;2.45;;
73251;SDS011;61473;50.834;4.552;2022-08-19T01:12:34;2.67;;;2.47;;
73251;SDS011;61473;50.834;4.552;2022-08-19T01:15:00;2.97;;;2.78;;
73251;SDS011;61473;50.834;4.552;2022-08-19T01:17:26;2.90;;;2.60;;
73251;SDS011;61473;50.834;4.552;2022-08-19T01:19:52;3.05;;;2.85;;
73251;SDS011;61473;50.834;4.552;2022-08-19T01:24:46;2.22;;;2.13;;
73251;SDS011;61473;50.834;4.552;2022-08-19T01:27:12;3.33;;;3.05;;
73251;SDS011;61473;50.834;4.552;2022-08-19T01:29:39;3.10;;;2.80;;
73251;SDS011;61473;50.834;4.552;2022-08-19T01:32:07;3.13;;;2.80;;
73251;SDS011;61473;50.834;4.552;2022-08-19T01:34:36;2.42;;;2.33;;
73251;SDS011;61473;50.834;4.552;2022-08-19T01:37:05;2.40;;;2.20;;
73251;SDS011;61473;50.834;4.552;2022-08-19T01:39:36;3.05;;;2.83;;
73251;SDS011;61473;50.834;4.552;2022-08-19T01:42:03;2.45;;;2.28;;
73251;SDS011;61473;50.834;4.552;2022-08-19T01:44:29;2.95;;;2.72;;
73251;SDS011;61473;50.834;4.552;2022-08-19T01:46:55;2.45;;;2.25;;
73251;SDS011;61473;50.834;4.552;2022-08-19T01:49:22;3.28;;;2.97;;
73251;SDS011;61473;50.834;4.552;2022-08-19T01:51:50;2.95;;;2.75;;
73251;SDS011;61473;50.834;4.552;2022-08-19T01:54:17;4.53;;;2.95;;
73251;SDS011;61473;50.834;4.552;2022-08-19T01:56:43;2.72;;;2.53;;
73251;SDS011;61473;50.834;4.552;2022-08-19T01:59:13;3.20;;;3.00;;
73251;SDS011;61473;50.834;4.552;2022-08-19T02:01:42;3.08;;;2.88;;
73251;SDS011;61473;50.834;4.552;2022-08-19T02:04:08;3.40;;;3.10;;
73251;SDS011;61473;50.834;4.552;2022-08-19T02:06:33;3.08;;;2.78;;
73251;SDS011;61473;50.834;4.552;2022-08-19T02:08:59;3.10;;;2.90;;
73251;SDS011;61473;50.834;4.552;2022-08-19T02:11:27;4.30;;;2.67;;
73251;SDS011;61473;50.834;4.552;2022-08-19T02:13:56;2.97;;;2.78;;
73251;SDS011;61473;50.834;4.552;2022-08-19T02:16:22;2.63;;;2.53;;
73251;SDS011;61473;50.834;4.552;2022-08-19T02:18:49;3.38;;;3.17;;
73251;SDS011;61473;50.834;4.552;2022-08-19T02:21:16;3.67;;;3.38;;
73251;SDS011;61473;50.834;4.552;2022-08-19T02:23:43;3.25;;;3.05;;
73251;SDS011;61473;50.834;4.552;2022-08-19T02:26:09;3.60;;;3.30;;
73251;SDS011;61473;50.834;4.552;2022-08-19T02:28:36;4.25;;;2.85;;
73251;SDS011;61473;50.834;4.552;2022-08-19T02:31:02;4.00;;;3.70;;
73251;SDS011;61473;50.834;4.552;2022-08-19T02:33:28;3.70;;;3.40;;
73251;SDS011;61473;50.834;4.552;2022-08-19T02:35:54;3.70;;;3.50;;
73251;SDS011;61473;50.834;4.552;2022-08-19T02:38:20;3.80;;;3.50;;
73251;SDS011;61473;50.834;4.552;2022-08-19T02:40:56;3.65;;;3.33;;
73251;SDS011;61473;50.834;4.552;2022-08-19T02:43:28;3.60;;;3.40;;
73251;SDS011;61473;50.834;4.552;2022-08-19T02:45:55;3.42;;;3.22;;
73251;SDS011;61473;50.834;4.552;2022-08-19T02:48:22;3.58;;;3.28;;
73251;SDS011;61473;50.834;4.552;2022-08-19T02:50:49;3.33;;;3.13;;
73251;SDS011;61473;50.834;4.552;2022-08-19T02:53:24;3.60;;;3.38;;
73251;SDS011;61473;50.834;4.552;2022-08-19T02:55:52;3.45;;;3.25;;
73251;SDS011;61473;50.834;4.552;2022-08-19T02:58:18;4.10;;;3.80;;
73251;SDS011;61473;50.834;4.552;2022-08-19T03:00:46;3.97;;;3.67;;
73251;SDS011;61473;50.834;4.552;2022-08-19T03:03:14;3.90;;;3.60;;
73251;SDS011;61473;50.834;4.552;2022-08-19T03:05:40;4.10;;;3.80;;
73251;SDS011;61473;50.834;4.552;2022-08-19T03:08:07;3.70;;;3.40;;
73251;SDS011;61473;50.834;4.552;2022-08-19T03:10:39;4.30;;;3.95;;
73251;SDS011;61473;50.834;4.552;2022-08-19T03:15:38;3.60;;;3.40;;
73251;SDS011;61473;50.834;4.552;2022-08-19T03:18:05;4.53;;;4.13;;
73251;SDS011;61473;50.834;4.552;2022-08-19T03:20:31;4.78;;;4.38;;
73251;SDS011;61473;50.834;4.552;2022-08-19T03:22:57;3.70;;;3.50;;
73251;SDS011;61473;50.834;4.552;2022-08-19T03:25:23;4.93;;;4.43;;
73251;SDS011;61473;50.834;4.552;2022-08-19T03:27:49;4.60;;;4.28;;
73251;SDS011;61473;50.834;4.552;2022-08-19T03:30:15;4.10;;;3.80;;
73251;SDS011;61473;50.834;4.552;2022-08-19T03:32:41;4.20;;;3.90;;
73251;SDS011;61473;50.834;4.552;2022-08-19T03:35:07;3.72;;;3.42;;
73251;SDS011;61473;50.834;4.552;2022-08-19T03:37:32;3.90;;;3.53;;
73251;SDS011;61473;50.834;4.552;2022-08-19T03:39:59;4.00;;;3.70;;
73251;SDS011;61473;50.834;4.552;2022-08-19T03:42:27;4.43;;;4.07;;
73251;SDS011;61473;50.834;4.552;2022-08-19T03:44:52;4.28;;;3.97;;
73251;SDS011;61473;50.834;4.552;2022-08-19T03:47:18;3.92;;;3.63;;
73251;SDS011;61473;50.834;4.552;2022-08-19T03:49:44;4.35;;;4.05;;
73251;SDS011;61473;50.834;4.552;2022-08-19T03:52:10;4.28;;;3.95;;
73251;SDS011;61473;50.834;4.552;2022-08-19T03:54:36;4.05;;;3.75;;
73251;SDS011;61473;50.834;4.552;2022-08-19T03:57:03;4.00;;;3.75;;
73251;SDS011;61473;50.834;4.552;2022-08-19T03:59:30;4.60;;;3.90;;
73251;SDS011;61473;50.834;4.552;2022-08-19T04:01:58;4.15;;;3.85;;
73251;SDS011;61473;50.834;4.552;2022-08-19T04:04:25;4.20;;;3.90;;
73251;SDS011;61473;50.834;4.552;2022-08-19T04:06:51;4.18;;;3.88;;
73251;SDS011;61473;50.834;4.552;2022-08-19T04:09:18;3.90;;;3.60;;
73251;SDS011;61473;50.834;4.552;2022-08-19T04:11:51;4.55;;;4.25;;
73251;SDS011;61473;50.834;4.552;2022-08-19T04:14:20;4.15;;;3.90;;
73251;SDS011;61473;50.834;4.552;2022-08-19T04:16:48;4.38;;;4.07;;
73251;SDS011;61473;50.834;4.552;2022-08-19T04:19:14;4.85;;;3.72;;
73251;SDS011;61473;50.834;4.552;2022-08-19T04:21:42;3.60;;;3.30;;
73251;SDS011;61473;50.834;4.552;2022-08-19T04:24:11;4.00;;;3.65;;
73251;SDS011;61473;50.834;4.552;2022-08-19T04:26:38;4.75;;;3.78;;
73251;SDS011;61473;50.834;4.552;2022-08-19T04:29:09;4.03;;;3.72;;
73251;SDS011;61473;50.834;4.552;2022-08-19T04:31:37;4.25;;;3.95;;
73251;SDS011;61473;50.834;4.552;2022-08-19T04:34:06;3.60;;;3.30;;
73251;SDS011;61473;50.834;4.552;2022-08-19T04:36:33;4.43;;;4.13;;
73251;SDS011;61473;50.834;4.552;2022-08-19T04:39:03;4.55;;;4.07;;
73251;SDS011;61473;50.834;4.552;2022-08-19T04:41:30;4.00;;;3.40;;
73251;SDS011;61473;50.834;4.552;2022-08-19T04:44:31;3.83;;;3.53;;
73251;SDS011;61473;50.834;4.552;2022-08-19T04:46:58;4.03;;;3.72;;
73251;SDS011;61473;50.834;4.552;2022-08-19T04:49:25;4.20;;;3.55;;
73251;SDS011;61473;50.834;4.552;2022-08-19T04:51:51;3.53;;;3.22;;
73251;SDS011;61473;50.834;4.552;2022-08-19T04:54:19;3.40;;;3.10;;
73251;SDS011;61473;50.834;4.552;2022-08-19T04:56:48;4.63;;;3.00;;
73251;SDS011;61473;50.834;4.552;2022-08-19T04:59:15;3.72;;;3.42;;
73251;SDS011;61473;50.834;4.552;2022-08-19T05:01:43;3.50;;;3.30;;
73251;SDS011;61473;50.834;4.552;2022-08-19T05:04:15;3.50;;;3.30;;
73251;SDS011;61473;50.834;4.552;2022-08-19T05:06:42;3.85;;;3.55;;
73251;SDS011;61473;50.834;4.552;2022-08-19T05:09:08;3.40;;;3.10;;
73251;SDS011;61473;50.834;4.552;2022-08-19T05:11:35;3.15;;;2.95;;
73251;SDS011;61473;50.834;4.552;2022-08-19T05:14:04;3.28;;;3.08;;
73251;SDS011;61473;50.834;4.552;2022-08-19T05:16:31;4.22;;;3.72;;
73251;SDS011;61473;50.834;4.552;2022-08-19T05:18:57;3.65;;;3.35;;
73251;SDS011;61473;50.834;4.552;2022-08-19T05:21:41;3.35;;;3.15;;
73251;SDS011;61473;50.834;4.552;2022-08-19T05:24:26;3.38;;;3.08;;
73251;SDS011;61473;50.834;4.552;2022-08-19T05:26:54;4.63;;;3.17;;
73251;SDS011;61473;50.834;4.552;2022-08-19T05:29:22;3.50;;;3.20;;
73251;SDS011;61473;50.834;4.552;2022-08-19T05:31:49;3.63;;;3.33;;
73251;SDS011;61473;50.834;4.552;2022-08-19T05:34:16;3.88;;;3.53;;
73251;SDS011;61473;50.834;4.552;2022-08-19T05:36:46;5.00;;;3.13;;
73251;SDS011;61473;50.834;4.552;2022-08-19T05:39:13;4.05;;;3.50;;
73251;SDS011;61473;50.834;4.552;2022-08-19T05:41:49;4.60;;;3.83;;
73251;SDS011;61473;50.834;4.552;2022-08-19T05:44:17;4.35;;;3.95;;
73251;SDS011;61473;50.834;4.552;2022-08-19T05:46:47;4.03;;;3.15;;
73251;SDS011;61473;50.834;4.552;2022-08-19T05:49:13;5.40;;;3.92;;
73251;SDS011;61473;50.834;4.552;2022-08-19T05:51:41;5.68;;;3.33;;
73251;SDS011;61473;50.834;4.552;2022-08-19T05:54:08;4.53;;;3.67;;
73251;SDS011;61473;50.834;4.552;2022-08-19T05:56:34;3.60;;;3.30;;
73251;SDS011;61473;50.834;4.552;2022-08-19T05:59:03;3.20;;;3.00;;
73251;SDS011;61473;50.834;4.552;2022-08-19T06:01:34;4.25;;;2.80;;
73251;SDS011;61473;50.834;4.552;2022-08-19T06:04:00;3.17;;;2.88;;
73251;SDS011;61473;50.834;4.552;2022-08-19T06:06:26;4.50;;;3.80;;
73251;SDS011;61473;50.834;4.552;2022-08-19T06:08:52;3.97;;;3.42;;
73251;SDS011;61473;50.834;4.552;2022-08-19T06:11:19;3.90;;;3.58;;
73251;SDS011;61473;50.834;4.552;2022-08-19T06:13:51;4.40;;;3.35;;
73251;SDS011;61473;50.834;4.552;2022-08-19T06:16:19;3.95;;;3.53;;
73251;SDS011;61473;50.834;4.552;2022-08-19T06:18:49;3.17;;;2.88;;
73251;SDS011;61473;50.834;4.552;2022-08-19T06:21:17;3.58;;;3.28;;
73251;SDS011;61473;50.834;4.552;2022-08-19T06:23:45;3.95;;;3.42;;
73251;SDS011;61473;50.834;4.552;2022-08-19T06:26:12;2.75;;;2.55;;
73251;SDS011;61473;50.834;4.552;2022-08-19T06:28:39;3.58;;;3.28;;
73251;SDS011;61473;50.834;4.552;2022-08-19T06:31:12;3.75;;;3.40;;
73251;SDS011;61473;50.834;4.552;2022-08-19T06:33:42;3.13;;;2.85;;
73251;SDS011;61473;50.834;4.552;2022-08-19T06:36:15;3.53;;;3.00;;
73251;SDS011;61473;50.834;4.552;2022-08-19T06:38:56;3.70;;;3.05;;
73251;SDS011;61473;50.834;4.552;2022-08-19T06:41:26;2.88;;;2.65;;
73251;SDS011;61473;50.834;4.552;2022-08-19T06:43:52;2.85;;;2.65;;
73251;SDS011;61473;50.834;4.552;2022-08-19T06:46:19;3.45;;;3.15;;
73251;SDS011;61473;50.834;4.552;2022-08-19T06:48:46;3.08;;;2.88;;
73251;SDS011;61473;50.834;4.552;2022-08-19T06:51:15;4.45;;;3.45;;
73251;SDS011;61473;50.834;4.552;2022-08-19T06:53:46;3.17;;;2.80;;
73251;SDS011;61473;50.834;4.552;2022-08-19T06:56:13;4.00;;;3.60;;
73251;SDS011;61473;50.834;4.552;2022-08-19T06:58:40;3.50;;;3.20;;
73251;SDS011;61473;50.834;4.552;2022-08-19T07:01:06;3.20;;;2.90;;
73251;SDS011;61473;50.834;4.552;2022-08-19T07:03:34;3.47;;;3.28;;
73251;SDS011;61473;50.834;4.552;2022-08-19T07:06:12;2.95;;;2.75;;
73251;SDS011;61473;50.834;4.552;2022-08-19T07:08:40;4.80;;;3.42;;
73251;SDS011;61473;50.834;4.552;2022-08-19T07:11:08;3.70;;;3.30;;
73251;SDS011;61473;50.834;4.552;2022-08-19T07:13:34;3.60;;;3.30;;
73251;SDS011;61473;50.834;4.552;2022-08-19T07:16:09;4.03;;;3.30;;
73251;SDS011;61473;50.834;4.552;2022-08-19T07:18:37;5.55;;;3.55;;
73251;SDS011;61473;50.834;4.552;2022-08-19T07:21:05;3.40;;;3.20;;
73251;SDS011;61473;50.834;4.552;2022-08-19T07:23:32;3.28;;;2.97;;
73251;SDS011;61473;50.834;4.552;2022-08-19T07:26:04;3.60;;;3.13;;
73251;SDS011;61473;50.834;4.552;2022-08-19T07:28:35;3.40;;;3.03;;
73251;SDS011;61473;50.834;4.552;2022-08-19T07:31:05;3.38;;;3.08;;
73251;SDS011;61473;50.834;4.552;2022-08-19T07:33:45;3.83;;;3.30;;
73251;SDS011;61473;50.834;4.552;2022-08-19T07:36:14;5.13;;;2.90;;
73251;SDS011;61473;50.834;4.552;2022-08-19T07:38:43;2.95;;;2.65;;
73251;SDS011;61473;50.834;4.552;2022-08-19T07:41:12;3.65;;;2.85;;
73251;SDS011;61473;50.834;4.552;2022-08-19T07:43:40;3.33;;;3.00;;
73251;SDS011;61473;50.834;4.552;2022-08-19T07:46:08;3.20;;;2.90;;
73251;SDS011;61473;50.834;4.552;2022-08-19T07:48:34;3.13;;;2.83;;
73251;SDS011;61473;50.834;4.552;2022-08-19T07:51:03;4.35;;;2.88;;
73251;SDS011;61473;50.834;4.552;2022-08-19T07:53:30;2.50;;;2.30;;
73251;SDS011;61473;50.834;4.552;2022-08-19T07:56:00;3.30;;;3.00;;
73251;SDS011;61473;50.834;4.552;2022-08-19T07:58:27;4.13;;;2.80;;
73251;SDS011;61473;50.834;4.552;2022-08-19T08:00:53;3.25;;;2.75;;
73251;SDS011;61473;50.834;4.552;2022-08-19T08:03:20;2.80;;;2.40;;
73251;SDS011;61473;50.834;4.552;2022-08-19T08:06:07;2.53;;;2.30;;
73251;SDS011;61473;50.834;4.552;2022-08-19T08:08:51;2.90;;;2.60;;
73251;SDS011;61473;50.834;4.552;2022-08-19T08:11:36;2.70;;;2.47;;
73251;SDS011;61473;50.834;4.552;2022-08-19T08:14:13;3.00;;;2.70;;
73251;SDS011;61473;50.834;4.552;2022-08-19T08:17:00;2.97;;;2.78;;
73251;SDS011;61473;50.834;4.552;2022-08-19T08:19:26;3.70;;;2.80;;
73251;SDS011;61473;50.834;4.552;2022-08-19T08:21:54;3.72;;;2.72;;
73251;SDS011;61473;50.834;4.552;2022-08-19T08:24:21;2.72;;;2.47;;
73251;SDS011;61473;50.834;4.552;2022-08-19T08:26:47;3.53;;;2.53;;
73251;SDS011;61473;50.834;4.552;2022-08-19T08:29:13;3.90;;;2.92;;
73251;SDS011;61473;50.834;4.552;2022-08-19T08:31:40;2.28;;;2.08;;
73251;SDS011;61473;50.834;4.552;2022-08-19T08:34:08;3.42;;;2.95;;
73251;SDS011;61473;50.834;4.552;2022-08-19T08:36:36;2.42;;;2.22;;
73251;SDS011;61473;50.834;4.552;2022-08-19T08:39:06;2.50;;;2.30;;
73251;SDS011;61473;50.834;4.552;2022-08-19T08:47:04;3.13;;;2.72;;
73251;SDS011;61473;50.834;4.552;2022-08-19T08:49:45;3.28;;;2.20;;
73251;SDS011;61473;50.834;4.552;2022-08-19T08:52:24;2.72;;;2.53;;
73251;SDS011;61473;50.834;4.552;2022-08-19T08:54:54;2.47;;;2.28;;
73251;SDS011;61473;50.834;4.552;2022-08-19T08:59:55;2.47;;;2.28;;
73251;SDS011;61473;50.834;4.552;2022-08-19T09:02:22;2.30;;;2.10;;
73251;SDS011;61473;50.834;4.552;2022-08-19T09:04:48;3.20;;;2.25;;
73251;SDS011;61473;50.834;4.552;2022-08-19T09:09:52;2.47;;;2.28;;
73251;SDS011;61473;50.834;4.552;2022-08-19T09:15:19;2.90;;;2.10;;
73251;SDS011;61473;50.834;4.552;2022-08-19T09:17:49;2.10;;;2.00;;
73251;SDS011;61473;50.834;4.552;2022-08-19T09:20:18;3.28;;;2.25;;
73251;SDS011;61473;50.834;4.552;2022-08-19T09:22:46;2.22;;;1.77;;
73251;SDS011;61473;50.834;4.552;2022-08-19T09:25:15;4.30;;;2.58;;
73251;SDS011;61473;50.834;4.552;2022-08-19T09:27:42;2.45;;;2.05;;
73251;SDS011;61473;50.834;4.552;2022-08-19T09:30:11;2.25;;;1.98;;
73251;SDS011;61473;50.834;4.552;2022-08-19T09:32:41;2.47;;;2.28;;
73251;SDS011;61473;50.834;4.552;2022-08-19T09:35:08;3.00;;;2.38;;
73251;SDS011;61473;50.834;4.552;2022-08-19T09:37:34;1.92;;;1.63;;
73251;SDS011;61473;50.834;4.552;2022-08-19T09:40:00;1.88;;;1.77;;
73251;SDS011;61473;50.834;4.552;2022-08-19T09:42:26;1.95;;;1.85;;
73251;SDS011;61473;50.834;4.552;2022-08-19T09:44:51;2.28;;;1.75;;
73251;SDS011;61473;50.834;4.552;2022-08-19T09:47:17;1.98;;;1.75;;
73251;SDS011;61473;50.834;4.552;2022-08-19T09:49:42;1.60;;;1.50;;
73251;SDS011;61473;50.834;4.552;2022-08-19T09:52:09;2.00;;;1.90;;
73251;SDS011;61473;50.834;4.552;2022-08-19T09:54:36;2.15;;;1.90;;
73251;SDS011;61473;50.834;4.552;2022-08-19T09:57:03;2.17;;;1.73;;
73251;SDS011;61473;50.834;4.552;2022-08-19T09:59:29;1.80;;;1.70;;
73251;SDS011;61473;50.834;4.552;2022-08-19T10:01:55;2.28;;;2.08;;
73251;SDS011;61473;50.834;4.552;2022-08-19T10:04:21;3.63;;;1.90;;
73251;SDS011;61473;50.834;4.552;2022-08-19T10:06:49;2.50;;;1.90;;
73251;SDS011;61473;50.834;4.552;2022-08-19T10:09:16;2.28;;;1.80;;
73251;SDS011;61473;50.834;4.552;2022-08-19T10:11:43;3.20;;;1.90;;
73251;SDS011;61473;50.834;4.552;2022-08-19T10:14:14;2.08;;;1.73;;
73251;SDS011;61473;50.834;4.552;2022-08-19T10:16:41;2.97;;;1.73;;
73251;SDS011;61473;50.834;4.552;2022-08-19T10:19:07;1.98;;;1.85;;
73251;SDS011;61473;50.834;4.552;2022-08-19T10:21:35;1.83;;;1.73;;
73251;SDS011;61473;50.834;4.552;2022-08-19T10:24:02;1.67;;;1.40;;
73251;SDS011;61473;50.834;4.552;2022-08-19T10:26:30;2.78;;;2.00;;
73251;SDS011;61473;50.834;4.552;2022-08-19T10:29:02;4.93;;;1.63;;
73251;SDS011;61473;50.834;4.552;2022-08-19T10:31:30;2.08;;;1.98;;
73251;SDS011;61473;50.834;4.552;2022-08-19T10:33:57;3.70;;;2.03;;
73251;SDS011;61473;50.834;4.552;2022-08-19T10:36:25;1.63;;;1.52;;
73251;SDS011;61473;50.834;4.552;2022-08-19T10:38:55;3.47;;;1.90;;
73251;SDS011;61473;50.834;4.552;2022-08-19T10:41:24;2.05;;;1.77;;
73251;SDS011;61473;50.834;4.552;2022-08-19T10:43:55;2.20;;;1.95;;
73251;SDS011;61473;50.834;4.552;2022-08-19T10:46:24;2.13;;;1.92;;
73251;SDS011;61473;50.834;4.552;2022-08-19T10:48:51;2.55;;;2.00;;
73251;SDS011;61473;50.834;4.552;2022-08-19T10:51:18;1.55;;;1.45;;
73251;SDS011;61473;50.834;4.552;2022-08-19T10:54:02;1.52;;;1.42;;
73251;SDS011;61473;50.834;4.552;2022-08-19T10:56:29;2.10;;;1.90;;
73251;SDS011;61473;50.834;4.552;2022-08-19T11:01:40;2.42;;;1.52;;
73251;SDS011;61473;50.834;4.552;2022-08-19T11:04:08;1.88;;;1.65;;
73251;SDS011;61473;50.834;4.552;2022-08-19T11:06:36;4.35;;;1.70;;
73251;SDS011;61473;50.834;4.552;2022-08-19T11:09:04;1.83;;;1.70;;
73251;SDS011;61473;50.834;4.552;2022-08-19T11:11:31;1.42;;;1.33;;
73251;SDS011;61473;50.834;4.552;2022-08-19T11:13:57;1.88;;;1.77;;
73251;SDS011;61473;50.834;4.552;2022-08-19T11:16:24;2.17;;;1.73;;
73251;SDS011;61473;50.834;4.552;2022-08-19T11:18:54;2.03;;;1.83;;
73251;SDS011;61473;50.834;4.552;2022-08-19T11:23:57;2.22;;;1.98;;
73251;SDS011;61473;50.834;4.552;2022-08-19T11:26:25;1.70;;;1.60;;
73251;SDS011;61473;50.834;4.552;2022-08-19T11:28:52;1.63;;;1.52;;
73251;SDS011;61473;50.834;4.552;2022-08-19T11:31:22;2.33;;;2.13;;
73251;SDS011;61473;50.834;4.552;2022-08-19T11:33:51;1.60;;;1.50;;
73251;SDS011;61473;50.834;4.552;2022-08-19T11:36:18;2.35;;;2.15;;
73251;SDS011;61473;50.834;4.552;2022-08-19T11:38:46;2.72;;;2.53;;
73251;SDS011;61473;50.834;4.552;2022-08-19T11:41:14;1.73;;;1.60;;
73251;SDS011;61473;50.834;4.552;2022-08-19T11:43:41;2.88;;;1.88;;
73251;SDS011;61473;50.834;4.552;2022-08-19T11:46:08;2.17;;;2.08;;
73251;SDS011;61473;50.834;4.552;2022-08-19T11:48:35;2.97;;;1.90;;
73251;SDS011;61473;50.834;4.552;2022-08-19T11:51:06;1.90;;;1.80;;
73251;SDS011;61473;50.834;4.552;2022-08-19T11:53:39;2.08;;;1.83;;
73251;SDS011;61473;50.834;4.552;2022-08-19T11:56:06;2.05;;;1.92;;
73251;SDS011;61473;50.834;4.552;2022-08-19T11:58:33;2.40;;;2.20;;
73251;SDS011;61473;50.834;4.552;2022-08-19T12:00:59;2.47;;;2.28;;
73251;SDS011;61473;50.834;4.552;2022-08-19T12:03:25;3.90;;;2.22;;
73251;SDS011;61473;50.834;4.552;2022-08-19T12:05:51;2.13;;;1.95;;
73251;SDS011;61473;50.834;4.552;2022-08-19T12:08:17;1.90;;;1.80;;
73251;SDS011;61473;50.834;4.552;2022-08-19T12:10:43;2.60;;;2.40;;
73251;SDS011;61473;50.834;4.552;2022-08-19T12:13:10;2.60;;;2.40;;
73251;SDS011;61473;50.834;4.552;2022-08-19T12:15:43;2.50;;;2.30;;
73251;SDS011;61473;50.834;4.552;2022-08-19T12:18:10;2.50;;;2.30;;
73251;SDS011;61473;50.834;4.552;2022-08-19T12:20:39;1.75;;;1.65;;
73251;SDS011;61473;50.834;4.552;2022-08-19T12:23:07;2.05;;;1.95;;
73251;SDS011;61473;50.834;4.552;2022-08-19T12:25:35;2.30;;;2.10;;
73251;SDS011;61473;50.834;4.552;2022-08-19T12:28:01;2.60;;;2.20;;
73251;SDS011;61473;50.834;4.552;2022-08-19T12:30:28;1.83;;;1.73;;
73251;SDS011;61473;50.834;4.552;2022-08-19T12:32:54;2.30;;;2.10;;
73251;SDS011;61473;50.834;4.552;2022-08-19T12:35:20;2.50;;;2.30;;
73251;SDS011;61473;50.834;4.552;2022-08-19T12:37:47;1.83;;;1.73;;
73251;SDS011;61473;50.834;4.552;2022-08-19T12:40:13;3.67;;;2.30;;
73251;SDS011;61473;50.834;4.552;2022-08-19T12:42:41;2.53;;;2.05;;
73251;SDS011;61473;50.834;4.552;2022-08-19T12:45:10;2.20;;;2.10;;
73251;SDS011;61473;50.834;4.552;2022-08-19T12:47:38;2.97;;;1.92;;
73251;SDS011;61473;50.834;4.552;2022-08-19T12:50:04;2.70;;;2.38;;
73251;SDS011;61473;50.834;4.552;2022-08-19T12:52:35;2.20;;;2.03;;
73251;SDS011;61473;50.834;4.552;2022-08-19T12:55:07;2.22;;;2.03;;
73251;SDS011;61473;50.834;4.552;2022-08-19T12:57:33;2.65;;;2.03;;
73251;SDS011;61473;50.834;4.552;2022-08-19T13:00:21;1.77;;;1.67;;
73251;SDS011;61473;50.834;4.552;2022-08-19T13:02:47;2.53;;;1.95;;
73251;SDS011;61473;50.834;4.552;2022-08-19T13:05:17;2.50;;;2.17;;
73251;SDS011;61473;50.834;4.552;2022-08-19T13:07:46;2.05;;;1.95;;
73251;SDS011;61473;50.834;4.552;2022-08-19T13:10:13;2.15;;;1.98;;
73251;SDS011;61473;50.834;4.552;2022-08-19T13:12:41;2.90;;;2.65;;
73251;SDS011;61473;50.834;4.552;2022-08-19T13:15:07;1.98;;;1.88;;
73251;SDS011;61473;50.834;4.552;2022-08-19T13:17:34;2.35;;;2.15;;
73251;SDS011;61473;50.834;4.552;2022-08-19T13:20:00;2.08;;;1.98;;
73251;SDS011;61473;50.834;4.552;2022-08-19T13:22:26;1.95;;;1.85;;
73251;SDS011;61473;50.834;4.552;2022-08-19T13:24:52;2.00;;;1.90;;
73251;SDS011;61473;50.834;4.552;2022-08-19T13:27:18;1.98;;;1.88;;
73251;SDS011;61473;50.834;4.552;2022-08-19T13:29:44;3.53;;;1.70;;
73251;SDS011;61473;50.834;4.552;2022-08-19T13:32:29;2.58;;;1.60;;
73251;SDS011;61473;50.834;4.552;2022-08-19T13:35:13;1.70;;;1.60;;
73251;SDS011;61473;50.834;4.552;2022-08-19T13:37:40;1.63;;;1.52;;
73251;SDS011;61473;50.834;4.552;2022-08-19T13:40:07;2.08;;;1.88;;
73251;SDS011;61473;50.834;4.552;2022-08-19T13:42:40;1.50;;;1.40;;
73251;SDS011;61473;50.834;4.552;2022-08-19T13:45:07;1.77;;;1.42;;
73251;SDS011;61473;50.834;4.552;2022-08-19T13:47:34;2.88;;;1.60;;
73251;SDS011;61473;50.834;4.552;2022-08-19T13:50:03;1.67;;;1.58;;
73251;SDS011;61473;50.834;4.552;2022-08-19T13:52:29;1.63;;;1.52;;
73251;SDS011;61473;50.834;4.552;2022-08-19T13:54:55;1.40;;;1.30;;
73251;SDS011;61473;50.834;4.552;2022-08-19T13:57:21;1.95;;;1.52;;
73251;SDS011;61473;50.834;4.552;2022-08-19T13:59:47;1.33;;;1.08;;
73251;SDS011;61473;50.834;4.552;2022-08-19T14:02:13;1.73;;;1.60;;
73251;SDS011;61473;50.834;4.552;2022-08-19T14:04:39;1.70;;;1.60;;
73251;SDS011;61473;50.834;4.552;2022-08-19T14:07:05;1.67;;;1.33;;
73251;SDS011;61473;50.834;4.552;2022-08-19T14:09:31;1.58;;;1.48;;
73251;SDS011;61473;50.834;4.552;2022-08-19T14:11:56;1.45;;;1.10;;
73251;SDS011;61473;50.834;4.552;2022-08-19T14:14:22;1.65;;;1.55;;
73251;SDS011;61473;50.834;4.552;2022-08-19T14:16:48;3.65;;;1.38;;
73251;SDS011;61473;50.834;4.552;2022-08-19T14:19:14;2.30;;;1.23;;
73251;SDS011;61473;50.834;4.552;2022-08-19T14:21:39;1.45;;;1.35;;
73251;SDS011;61473;50.834;4.552;2022-08-19T14:24:06;1.27;;;1.17;;
73251;SDS011;61473;50.834;4.552;2022-08-19T14:26:32;1.17;;;1.08;;
73251;SDS011;61473;50.834;4.552;2022-08-19T14:28:58;1.30;;;1.10;;
73251;SDS011;61473;50.834;4.552;2022-08-19T14:31:24;0.80;;;0.73;;
73251;SDS011;61473;50.834;4.552;2022-08-19T14:33:51;1.60;;;1.23;;
73251;SDS011;61473;50.834;4.552;2022-08-19T14:36:17;4.18;;;1.05;;
73251;SDS011;61473;50.834;4.552;2022-08-19T14:38:46;1.73;;;1.20;;
73251;SDS011;61473;50.834;4.552;2022-08-19T14:41:14;1.00;;;1.00;;
73251;SDS011;61473;50.834;4.552;2022-08-19T14:43:43;1.00;;;1.00;;
73251;SDS011;61473;50.834;4.552;2022-08-19T14:46:16;1.00;;;0.90;;
73251;SDS011;61473;50.834;4.552;2022-08-19T14:48:45;0.70;;;0.70;;
73251;SDS011;61473;50.834;4.552;2022-08-19T14:51:11;0.90;;;0.90;;
73251;SDS011;61473;50.834;4.552;2022-08-19T14:53:37;1.88;;;0.93;;
73251;SDS011;61473;50.834;4.552;2022-08-19T14:56:10;1.27;;;1.17;;
73251;SDS011;61473;50.834;4.552;2022-08-19T14:58:37;0.95;;;0.90;;
73251;SDS011;61473;50.834;4.552;2022-08-19T15:01:05;0.57;;;0.57;;
73251;SDS011;61473;50.834;4.552;2022-08-19T15:03:32;0.93;;;0.93;;
73251;SDS011;61473;50.834;4.552;2022-08-19T15:05:58;1.60;;;1.30;;
73251;SDS011;61473;50.834;4.552;2022-08-19T15:08:26;1.00;;;0.75;;
73251;SDS011;61473;50.834;4.552;2022-08-19T15:10:53;1.05;;;0.77;;
73251;SDS011;61473;50.834;4.552;2022-08-19T15:13:19;0.82;;;0.80;;
73251;SDS011;61473;50.834;4.552;2022-08-19T15:15:44;0.93;;;0.90;;
73251;SDS011;61473;50.834;4.552;2022-08-19T15:18:10;1.05;;;0.95;;